Time;durP1;ratioP1;P1;durP2;ratioP2;P2;SDS_P1;SDS_P2;PMS_P1;PMS_P2;Temp;Humidity;BMP_temperature;BMP_pressure;BME280_temperature;BME280_humidity;BME280_pressure;Samples;Min_cycle;Max_cycle;Signal;HPM_P1;HPM_P2
2022/07/18 00:00:09;;;;;;;1999.90;999.90;;;17.60;87.40;;;;;;5074264;28;20197;-61
2022/07/18 00:02:37;;;;;;;1999.90;999.90;;;17.60;82.50;;;;;;5073877;28;20699;-60
2022/07/18 00:05:05;;;;;;;1999.90;999.90;;;17.60;78.50;;;;;;5074509;28;20223;-60
2022/07/18 00:07:32;;;;;;;1999.90;999.90;;;17.60;81.00;;;;;;5073964;28;20201;-61
2022/07/18 00:09:59;;;;;;;1999.90;999.90;;;17.50;80.20;;;;;;5073235;28;20215;-61
2022/07/18 00:12:26;;;;;;;1999.90;999.90;;;17.50;72.90;;;;;;5073200;28;20216;-61
2022/07/18 00:14:53;;;;;;;1999.90;999.90;;;17.50;67.70;;;;;;5074511;28;20194;-61
2022/07/18 00:17:21;;;;;;;1999.90;999.90;;;17.50;61.20;;;;;;5074254;28;20204;-61
2022/07/18 00:19:49;;;;;;;1999.90;999.90;;;17.50;54.30;;;;;;5074313;28;20206;-61
2022/07/18 00:22:16;;;;;;;1999.90;999.90;;;17.50;51.00;;;;;;5073878;28;20206;-61
2022/07/18 00:24:43;;;;;;;1999.90;999.90;;;17.40;54.20;;;;;;5073564;28;20586;-61
2022/07/18 00:27:10;;;;;;;1999.90;999.90;;;17.40;53.70;;;;;;5073713;28;20556;-61
2022/07/18 00:29:38;;;;;;;1999.90;999.90;;;17.40;56.90;;;;;;5074094;28;20202;-63
2022/07/18 00:32:07;;;;;;;1999.90;999.90;;;17.30;61.90;;;;;;5073270;28;20197;-61
2022/07/18 00:34:36;;;;;;;1999.90;999.90;;;17.10;63.00;;;;;;5073457;28;20187;-61
2022/07/18 00:37:04;;;;;;;1999.90;999.90;;;17.00;74.40;;;;;;5073937;28;20182;-61
2022/07/18 00:39:31;;;;;;;1999.90;999.90;;;17.00;98.20;;;;;;5072927;28;20196;-61
2022/07/18 00:41:58;;;;;;;1999.90;999.90;;;16.80;99.90;;;;;;5073425;28;20202;-61
2022/07/18 00:44:27;;;;;;;1999.90;999.90;;;16.70;99.90;;;;;;5073633;28;20214;-61
2022/07/18 00:46:56;;;;;;;1999.90;999.90;;;16.70;99.90;;;;;;5073728;28;20208;-61
2022/07/18 00:49:24;;;;;;;1999.90;999.90;;;16.60;99.90;;;;;;5073051;28;20200;-61
2022/07/18 00:51:53;;;;;;;1999.90;999.90;;;16.70;99.90;;;;;;5073488;28;20204;-61
2022/07/18 00:54:20;;;;;;;1999.90;999.90;;;16.70;99.90;;;;;;5073486;28;20192;-61
2022/07/18 00:56:50;;;;;;;1999.90;999.90;;;16.70;99.90;;;;;;5073365;28;20775;-61
2022/07/18 00:59:18;;;;;;;1999.90;999.90;;;16.70;99.90;;;;;;5072816;28;20226;-61
2022/07/18 01:01:46;;;;;;;1999.90;999.90;;;16.70;99.90;;;;;;5073394;28;20206;-61
2022/07/18 01:04:18;;;;;;;1999.90;999.90;;;16.60;99.90;;;;;;5073578;28;20217;-61
2022/07/18 01:06:47;;;;;;;1999.90;999.90;;;16.60;99.90;;;;;;5073060;28;20264;-61
2022/07/18 01:09:16;;;;;;;1999.90;999.90;;;16.60;99.90;;;;;;5072050;28;20200;-61
2022/07/18 01:11:44;;;;;;;1999.90;999.90;;;16.50;99.90;;;;;;5072972;28;20677;-61
2022/07/18 01:14:12;;;;;;;1999.90;999.90;;;16.50;99.90;;;;;;5073197;28;20250;-61
2022/07/18 01:16:39;;;;;;;1999.90;999.90;;;16.50;99.90;;;;;;5073389;28;20234;-61
2022/07/18 01:19:06;;;;;;;1999.90;999.90;;;16.60;99.90;;;;;;5072006;28;20775;-61
2022/07/18 01:21:36;;;;;;;1999.90;999.90;;;16.60;99.90;;;;;;5072917;28;20205;-60
2022/07/18 01:24:04;;;;;;;1999.90;999.90;;;16.50;99.90;;;;;;5072623;28;20205;-61
2022/07/18 01:26:31;;;;;;;1999.90;999.90;;;16.50;99.90;;;;;;5072724;28;20191;-61
2022/07/18 01:28:58;;;;;;;1999.90;999.90;;;16.40;99.90;;;;;;5071222;28;20229;-61
2022/07/18 01:31:25;;;;;;;1999.90;999.90;;;16.40;99.90;;;;;;5071702;28;20191;-60
2022/07/18 01:33:55;;;;;;;1999.90;999.90;;;16.40;99.90;;;;;;5072499;28;20195;-61
2022/07/18 01:36:22;;;;;;;1999.90;999.90;;;16.30;99.90;;;;;;5072411;28;20232;-61
2022/07/18 01:38:50;;;;;;;1999.90;999.90;;;16.20;99.90;;;;;;5072960;28;20204;-61
2022/07/18 01:41:17;;;;;;;1999.90;999.90;;;16.10;99.90;;;;;;5072682;28;20196;-61
2022/07/18 01:43:44;;;;;;;1999.90;999.90;;;16.00;99.90;;;;;;5072707;28;20219;-61
2022/07/18 01:46:12;;;;;;;1999.90;999.90;;;15.90;99.90;;;;;;5072814;28;20197;-61
2022/07/18 01:48:40;;;;;;;1999.90;999.90;;;15.90;99.90;;;;;;5072587;28;20199;-61
2022/07/18 01:51:09;;;;;;;1999.90;999.90;;;15.80;99.90;;;;;;5071482;28;20199;-62
2022/07/18 01:53:37;;;;;;;1999.90;999.90;;;15.90;99.90;;;;;;5072506;28;20199;-61
2022/07/18 01:56:06;;;;;;;1999.90;999.90;;;15.90;99.90;;;;;;5072820;28;20206;-61
2022/07/18 01:58:34;;;;;;;1999.90;999.90;;;15.80;99.90;;;;;;5072297;28;20219;-61
2022/07/18 02:01:01;;;;;;;1999.90;999.90;;;15.80;99.90;;;;;;5072281;28;20668;-61
2022/07/18 02:03:28;;;;;;;1999.90;999.90;;;15.70;99.90;;;;;;5072450;28;20200;-60
2022/07/18 02:05:55;;;;;;;1999.90;999.90;;;15.70;99.90;;;;;;5072541;28;20201;-60
2022/07/18 02:08:22;;;;;;;1999.90;999.90;;;15.70;99.90;;;;;;5072499;28;20205;-61
2022/07/18 02:10:49;;;;;;;1999.90;999.90;;;15.60;99.90;;;;;;5072468;28;20313;-61
2022/07/18 02:13:20;;;;;;;1999.90;999.90;;;15.60;99.90;;;;;;5072411;28;20207;-61
2022/07/18 02:15:47;;;;;;;1999.90;999.90;;;15.60;99.90;;;;;;5072511;28;20176;-61
2022/07/18 02:18:14;;;;;;;1999.90;999.90;;;15.60;99.90;;;;;;5072322;28;20202;-61
2022/07/18 02:20:41;;;;;;;1999.90;999.90;;;15.60;99.90;;;;;;5072400;28;20551;-63
2022/07/18 02:23:08;;;;;;;1999.90;999.90;;;15.60;99.90;;;;;;5072340;28;20198;-61
2022/07/18 02:25:35;;;;;;;1999.90;999.90;;;15.60;99.90;;;;;;5072394;28;20215;-61
2022/07/18 02:28:02;;;;;;;1999.90;999.90;;;15.60;99.90;;;;;;5072308;28;20209;-61
2022/07/18 02:30:31;;;;;;;1999.90;999.90;;;15.60;99.90;;;;;;5072288;28;20198;-61
2022/07/18 02:32:59;;;;;;;1999.90;999.90;;;15.60;99.90;;;;;;5072450;28;20211;-60
2022/07/18 02:35:26;;;;;;;1999.90;999.90;;;15.60;99.90;;;;;;5072054;28;20263;-60
2022/07/18 02:37:53;;;;;;;1999.90;999.90;;;15.60;99.90;;;;;;5072179;28;20198;-61
2022/07/18 02:40:20;;;;;;;1999.90;999.90;;;15.50;99.90;;;;;;5072178;28;20206;-61
2022/07/18 02:42:47;;;;;;;1999.90;999.90;;;15.50;99.90;;;;;;5071927;28;20198;-61
2022/07/18 02:45:14;;;;;;;1999.90;999.90;;;15.50;99.90;;;;;;5072083;28;20229;-61
2022/07/18 02:47:42;;;;;;;1999.90;999.90;;;15.50;99.90;;;;;;5071731;28;20199;-61
2022/07/18 02:50:11;;;;;;;1999.90;999.90;;;15.50;99.90;;;;;;5072114;28;20199;-61
2022/07/18 02:52:39;;;;;;;1999.90;999.90;;;15.50;99.90;;;;;;5071724;28;20702;-61
2022/07/18 02:55:07;;;;;;;1999.90;999.90;;;15.40;99.90;;;;;;5071973;28;20236;-61
2022/07/18 02:57:34;;;;;;;1999.90;999.90;;;15.30;99.90;;;;;;5071738;28;20199;-61
2022/07/18 03:00:01;;;;;;;1999.90;999.90;;;15.30;99.90;;;;;;5072003;28;20197;-61
2022/07/18 03:02:28;;;;;;;1999.90;999.90;;;15.20;99.90;;;;;;5072938;28;20214;-60
2022/07/18 03:04:57;;;;;;;1999.90;999.90;;;15.20;99.90;;;;;;5075579;28;20215;-60
2022/07/18 03:07:24;;;;;;;1999.90;999.90;;;15.20;99.90;;;;;;5075655;28;20195;-61
2022/07/18 03:09:51;;;;;;;1999.90;999.90;;;15.10;99.90;;;;;;5075274;28;20544;-61
2022/07/18 03:12:18;;;;;;;1999.90;999.90;;;15.10;99.90;;;;;;5075251;28;20562;-61
2022/07/18 03:14:45;;;;;;;1999.90;999.90;;;15.10;99.90;;;;;;5075248;28;20683;-61
2022/07/18 03:17:12;;;;;;;1999.90;999.90;;;15.10;99.90;;;;;;5075526;28;20202;-61
2022/07/18 03:19:39;;;;;;;1999.90;999.90;;;15.20;99.90;;;;;;5075125;28;20198;-61
2022/07/18 03:22:08;;;;;;;1999.90;999.90;;;15.20;99.90;;;;;;5075039;28;20706;-61
2022/07/18 03:24:35;;;;;;;1999.90;999.90;;;15.20;99.90;;;;;;5074816;28;20202;-61
2022/07/18 03:27:02;;;;;;;1999.90;999.90;;;15.20;99.90;;;;;;5074985;28;20569;-60
2022/07/18 03:29:29;;;;;;;1999.90;999.90;;;15.20;99.90;;;;;;5075118;28;20698;-60
2022/07/18 03:31:56;;;;;;;1999.90;999.90;;;15.30;99.90;;;;;;5075360;28;20195;-60
2022/07/18 03:34:23;;;;;;;1999.90;999.90;;;15.30;99.90;;;;;;5074974;28;20191;-60
2022/07/18 03:36:50;;;;;;;1999.90;999.90;;;15.20;99.90;;;;;;5075185;28;20190;-61
2022/07/18 03:39:19;;;;;;;1999.90;999.90;;;15.20;99.90;;;;;;5074738;28;20201;-61
2022/07/18 03:41:46;;;;;;;1999.90;999.90;;;15.20;99.90;;;;;;5074774;28;20649;-61
2022/07/18 03:44:13;;;;;;;1999.90;999.90;;;15.20;99.90;;;;;;5074647;28;20199;-61
2022/07/18 03:46:40;;;;;;;1999.90;999.90;;;15.10;99.90;;;;;;5074920;28;20211;-61
2022/07/18 03:49:07;;;;;;;1999.90;999.90;;;15.10;99.90;;;;;;5074597;28;20695;-60
2022/07/18 03:51:34;;;;;;;1999.90;999.90;;;15.10;99.90;;;;;;5074761;28;20206;-61
2022/07/18 03:54:01;;;;;;;1999.90;999.90;;;15.10;99.90;;;;;;5074675;28;20260;-61
2022/07/18 03:56:30;;;;;;;1999.90;999.90;;;15.10;99.90;;;;;;5074723;28;20240;-61
2022/07/18 03:58:57;;;;;;;1999.90;999.90;;;15.10;99.90;;;;;;5074451;28;20668;-60
2022/07/18 04:01:24;;;;;;;1999.90;999.90;;;15.10;99.90;;;;;;5074521;28;20199;-60
2022/07/18 04:03:51;;;;;;;1999.90;999.90;;;15.10;99.90;;;;;;5074655;28;20203;-60
2022/07/18 04:06:18;;;;;;;1999.90;999.90;;;15.20;99.90;;;;;;5074250;28;20214;-60
2022/07/18 04:08:45;;;;;;;1999.90;999.90;;;15.20;99.90;;;;;;5074287;28;20195;-61
2022/07/18 04:11:12;;;;;;;1999.90;999.90;;;15.20;99.90;;;;;;5074227;28;20203;-60
2022/07/18 04:13:41;;;;;;;1999.90;999.90;;;15.20;99.90;;;;;;5073771;28;20195;-60
2022/07/18 04:16:08;;;;;;;1999.90;999.90;;;15.20;99.90;;;;;;5074169;28;20199;-60
2022/07/18 04:18:35;;;;;;;1999.90;999.90;;;15.30;99.90;;;;;;5074604;28;20206;-60
2022/07/18 04:21:02;;;;;;;1999.90;999.90;;;15.30;99.90;;;;;;5073900;28;20587;-60
2022/07/18 04:23:29;;;;;;;1999.90;999.90;;;15.30;99.90;;;;;;5074046;28;20209;-60
2022/07/18 04:25:56;;;;;;;1999.90;999.90;;;15.40;99.90;;;;;;5074070;28;20218;-61
2022/07/18 04:28:23;;;;;;;1999.90;999.90;;;15.40;99.90;;;;;;5074125;28;20201;-61
2022/07/18 04:30:51;;;;;;;1999.90;999.90;;;15.40;99.90;;;;;;5074187;28;20207;-60
2022/07/18 04:33:18;;;;;;;1999.90;999.90;;;15.50;99.90;;;;;;5074021;28;20201;-60
2022/07/18 04:35:46;;;;;;;1999.90;999.90;;;15.60;99.90;;;;;;5073723;28;20222;-60
2022/07/18 04:38:13;;;;;;;1999.90;999.90;;;15.60;99.90;;;;;;5073578;28;20561;-60
2022/07/18 04:40:40;;;;;;;1999.90;999.90;;;15.70;99.90;;;;;;5073545;28;20604;-61
2022/07/18 04:43:07;;;;;;;1999.90;999.90;;;15.80;99.90;;;;;;5073833;28;20661;-61
2022/07/18 04:45:35;;;;;;;1999.90;999.90;;;15.90;99.90;;;;;;5073433;28;20233;-60
2022/07/18 04:48:05;;;;;;;1999.90;999.90;;;15.90;99.90;;;;;;5073509;28;20206;-60
2022/07/18 04:50:32;;;;;;;1999.90;999.90;;;16.00;99.90;;;;;;5073667;28;20611;-61
2022/07/18 04:53:00;;;;;;;1999.90;999.90;;;16.10;99.90;;;;;;5073114;28;20195;-62
2022/07/18 04:55:28;;;;;;;1999.90;999.90;;;16.20;99.90;;;;;;5073533;28;20207;-61
2022/07/18 04:57:56;;;;;;;1999.90;999.90;;;16.30;99.90;;;;;;5073242;28;20199;-61
2022/07/18 05:00:27;;;;;;;1999.90;999.90;;;16.40;99.90;;;;;;5073168;28;20198;-61
2022/07/18 05:02:56;;;;;;;1999.90;999.90;;;16.50;99.90;;;;;;5073126;28;20188;-60
2022/07/18 05:05:26;;;;;;;1999.90;999.90;;;16.60;99.90;;;;;;5073286;28;20216;-60
2022/07/18 05:07:54;;;;;;;1999.90;999.90;;;16.60;99.90;;;;;;5073003;28;20663;-60
2022/07/18 05:10:23;;;;;;;1999.90;999.90;;;16.80;99.90;;;;;;5073129;28;20236;-60
2022/07/18 05:12:51;;;;;;;1999.90;999.90;;;17.00;99.90;;;;;;5072937;28;20214;-61
2022/07/18 05:15:20;;;;;;;1999.90;999.90;;;17.20;99.90;;;;;;5073234;28;20190;-60
2022/07/18 05:17:47;;;;;;;1999.90;999.90;;;17.40;99.90;;;;;;5072756;28;20208;-61
2022/07/18 05:20:16;;;;;;;1999.90;999.90;;;17.60;99.90;;;;;;5072961;28;20670;-61
2022/07/18 05:22:45;;;;;;;1999.90;999.90;;;17.80;99.90;;;;;;5072906;28;20212;-61
2022/07/18 05:25:13;;;;;;;1999.90;999.90;;;17.90;99.90;;;;;;5072748;28;20229;-61
2022/07/18 05:27:41;;;;;;;1999.90;999.90;;;18.10;99.90;;;;;;5073069;28;20207;-61
2022/07/18 05:30:10;;;;;;;1999.90;999.90;;;18.50;99.90;;;;;;5072619;28;20683;-61
2022/07/18 05:32:38;;;;;;;1999.90;999.90;;;19.20;99.90;;;;;;5072863;28;20248;-61
2022/07/18 05:35:06;;;;;;;1999.90;999.90;;;19.80;99.90;;;;;;5072641;28;20227;-60
2022/07/18 05:37:35;;;;;;;1999.90;999.90;;;19.90;99.90;;;;;;5072415;28;20197;-61
2022/07/18 05:40:04;;;;;;;1999.90;999.90;;;20.40;99.90;;;;;;5072790;28;20198;-62
2022/07/18 05:42:31;;;;;;;1999.90;999.90;;;20.40;99.90;;;;;;5072513;28;20193;-62
2022/07/18 05:44:59;;;;;;;1999.90;999.90;;;20.20;99.90;;;;;;5072335;28;20597;-61
2022/07/18 05:47:26;;;;;;;1999.90;999.90;;;20.40;99.90;;;;;;5072617;28;20202;-62
2022/07/18 05:49:53;;;;;;;1999.90;999.90;;;21.00;99.90;;;;;;5072846;28;20202;-63
2022/07/18 05:52:20;;;;;;;1999.90;999.90;;;21.50;99.90;;;;;;5072556;28;20195;-62
2022/07/18 05:54:47;;;;;;;1999.90;999.90;;;21.60;99.90;;;;;;5072493;28;20285;-62
2022/07/18 05:57:15;;;;;;;1999.90;999.90;;;22.10;99.90;;;;;;5072506;28;20183;-63
2022/07/18 05:59:42;;;;;;;1999.90;999.90;;;22.30;93.50;;;;;;5072531;28;20207;-62
2022/07/18 06:02:10;;;;;;;1999.90;999.90;;;21.90;74.40;;;;;;5072441;28;20201;-61
2022/07/18 06:04:37;;;;;;;1999.90;999.90;;;21.50;91.30;;;;;;5072489;28;20201;-62
2022/07/18 06:07:04;;;;;;;1999.90;999.90;;;21.70;96.20;;;;;;5072049;28;20280;-61
2022/07/18 06:09:31;;;;;;;1999.90;999.90;;;22.00;99.90;;;;;;5072482;28;20199;-63
2022/07/18 06:12:00;;;;;;;1999.90;999.90;;;22.30;52.90;;;;;;5072575;28;20202;-62
2022/07/18 06:14:29;;;;;;;1999.90;999.90;;;22.60;25.90;;;;;;5072241;28;20205;-62
2022/07/18 06:16:56;;;;;;;1999.90;999.90;;;22.80;15.80;;;;;;5072363;28;20208;-62
2022/07/18 06:19:24;;;;;;;1999.90;999.90;;;22.80;1.00;;;;;;5072317;28;20202;-62
2022/07/18 06:21:51;;;;;;;1999.90;999.90;;;22.90;1.00;;;;;;5072004;28;20210;-62
2022/07/18 06:24:18;;;;;;;1999.90;999.90;;;23.20;1.00;;;;;;5072110;28;20195;-62
2022/07/18 06:26:45;;;;;;;1999.90;999.90;;;23.70;1.00;;;;;;5071897;28;20211;-62
2022/07/18 06:29:12;;;;;;;1999.90;999.90;;;23.90;1.00;;;;;;5072010;28;20540;-62
2022/07/18 06:31:41;;;;;;;1999.90;999.90;;;24.00;1.00;;;;;;5072273;28;20198;-61
2022/07/18 06:34:08;;;;;;;1999.90;999.90;;;23.60;1.00;;;;;;5071904;28;20749;-61
2022/07/18 06:36:35;;;;;;;1999.90;999.90;;;23.50;1.00;;;;;;5071868;28;20235;-61
2022/07/18 06:39:08;;;;;;;1999.90;999.90;;;23.80;1.00;;;;;;5075851;28;20195;-62
2022/07/18 06:41:35;;;;;;;1999.90;999.90;;;24.50;1.00;;;;;;5076152;28;20179;-62
2022/07/18 06:44:02;;;;;;;1999.90;999.90;;;24.90;1.00;;;;;;5075876;28;20195;-62
2022/07/18 06:46:29;;;;;;;1999.90;999.90;;;25.80;1.00;;;;;;5075694;28;20233;-62
2022/07/18 06:48:57;;;;;;;1999.90;999.90;;;25.40;1.00;;;;;;5075617;28;20676;-62
2022/07/18 06:51:25;;;;;;;1999.90;999.90;;;25.60;1.00;;;;;;5075689;28;20706;-62
2022/07/18 06:53:52;;;;;;;1999.90;999.90;;;25.60;1.00;;;;;;5075492;28;20707;-62
2022/07/18 06:56:20;;;;;;;1999.90;999.90;;;25.50;1.00;;;;;;5075846;28;20195;-62
2022/07/18 06:58:48;;;;;;;1999.90;999.90;;;25.80;1.00;;;;;;5075791;28;20209;-61
2022/07/18 07:01:16;;;;;;;1999.90;999.90;;;25.80;1.00;;;;;;5075723;28;20191;-61
2022/07/18 07:03:43;;;;;;;1999.90;999.90;;;26.40;1.00;;;;;;5075709;28;20242;-61
2022/07/18 07:06:12;;;;;;;1999.90;999.90;;;26.70;1.00;;;;;;5075415;28;20219;-61
2022/07/18 07:08:39;;;;;;;1999.90;999.90;;;26.90;1.00;;;;;;5075269;28;20244;-62
2022/07/18 07:11:06;;;;;;;1999.90;999.90;;;27.00;1.00;;;;;;5075413;28;20652;-62
2022/07/18 07:13:33;;;;;;;1999.90;999.90;;;26.80;1.00;;;;;;5075470;28;20203;-62
2022/07/18 07:16:00;;;;;;;1999.90;999.90;;;26.70;1.00;;;;;;5075217;28;20194;-64
2022/07/18 07:18:27;;;;;;;1999.90;999.90;;;26.90;1.00;;;;;;5075048;28;20199;-63
2022/07/18 07:20:54;;;;;;;1999.90;999.90;;;26.80;1.00;;;;;;5075309;28;20191;-64
2022/07/18 07:23:23;;;;;;;1999.90;999.90;;;27.10;1.00;;;;;;5075132;28;20198;-64
2022/07/18 07:25:50;;;;;;;1999.90;999.90;;;27.10;1.00;;;;;;5074963;28;20221;-64
2022/07/18 07:28:18;;;;;;;1999.90;999.90;;;27.20;1.00;;;;;;5075285;28;20202;-63
2022/07/18 07:30:45;;;;;;;1999.90;999.90;;;27.30;1.00;;;;;;5074864;28;20220;-63
2022/07/18 07:33:12;;;;;;;1999.90;999.90;;;27.20;1.00;;;;;;5074827;28;20571;-63
2022/07/18 07:35:39;;;;;;;1999.90;999.90;;;27.20;1.00;;;;;;5074796;28;20230;-63
2022/07/18 07:38:07;;;;;;;1999.90;999.90;;;27.10;1.00;;;;;;5075077;28;20538;-64
2022/07/18 07:40:35;;;;;;;1999.90;999.90;;;27.20;1.00;;;;;;5075027;28;20195;-64
2022/07/18 07:43:07;;;;;;;1999.90;999.90;;;27.90;1.00;;;;;;5074658;28;20191;-62
2022/07/18 07:45:34;;;;;;;1999.90;999.90;;;28.10;1.00;;;;;;5074488;28;20557;-63
2022/07/18 07:48:02;;;;;;;1999.90;999.90;;;28.30;1.00;;;;;;5074501;28;20202;-64
2022/07/18 07:50:29;;;;;;;1999.90;999.90;;;28.20;1.00;;;;;;5073744;28;20195;-64
2022/07/18 07:52:56;;;;;;;1999.90;999.90;;;28.40;1.00;;;;;;5074299;28;20252;-64
2022/07/18 07:55:24;;;;;;;1999.90;999.90;;;28.80;1.00;;;;;;5074442;28;20217;-64
2022/07/18 07:57:52;;;;;;;1999.90;999.90;;;29.10;1.00;;;;;;5074693;28;20197;-63
2022/07/18 08:00:19;;;;;;;1999.90;999.90;;;29.40;1.00;;;;;;5074428;28;20652;-64
2022/07/18 08:02:58;;;;;;;1999.90;999.90;;;29.60;1.00;;;;;;5074330;28;20221;-63
2022/07/18 08:05:26;;;;;;;1999.90;999.90;;;29.30;1.00;;;;;;5074195;28;20183;-62
2022/07/18 08:07:53;;;;;;;1999.90;999.90;;;29.40;1.00;;;;;;5074402;28;20211;-63
2022/07/18 08:10:20;;;;;;;1999.90;999.90;;;29.20;1.00;;;;;;5074275;28;20198;-63
2022/07/18 08:12:47;;;;;;;1999.90;999.90;;;29.10;1.00;;;;;;5074568;28;20206;-64
2022/07/18 08:15:16;;;;;;;1999.90;999.90;;;29.00;1.00;;;;;;5074437;28;20205;-63
2022/07/18 08:17:43;;;;;;;1999.90;999.90;;;30.00;1.00;;;;;;5074337;28;20191;-63
2022/07/18 08:20:12;;;;;;;1999.90;999.90;;;30.10;1.00;;;;;;5073969;28;20551;-63
2022/07/18 08:22:53;;;;;;;1999.90;999.90;;;30.10;1.00;;;;;;5073995;28;20220;-64
2022/07/18 08:25:20;;;;;;;1999.90;999.90;;;30.30;1.00;;;;;;5073872;28;20197;-64
2022/07/18 08:27:47;;;;;;;1999.90;999.90;;;30.30;1.00;;;;;;5074071;28;20214;-63
2022/07/18 08:30:17;;;;;;;1999.90;999.90;;;30.90;1.00;;;;;;5074180;28;20205;-63
2022/07/18 08:32:44;;;;;;;1999.90;999.90;;;30.40;1.00;;;;;;5073982;28;20206;-63
2022/07/18 08:35:11;;;;;;;1999.90;999.90;;;30.50;1.00;;;;;;5073535;28;20248;-63
2022/07/18 08:37:39;;;;;;;1999.90;999.90;;;30.80;1.00;;;;;;5073598;28;20668;-63
2022/07/18 08:40:07;;;;;;;1999.90;999.90;;;30.70;1.00;;;;;;5073581;28;20728;-64
2022/07/18 08:42:35;;;;;;;1999.90;999.90;;;30.60;1.00;;;;;;5073504;28;20209;-64
2022/07/18 08:45:03;;;;;;;1999.90;999.90;;;30.70;1.00;;;;;;5073536;28;20198;-64
2022/07/18 08:47:33;;;;;;;1999.90;999.90;;;30.90;1.00;;;;;;5073609;28;20263;-64
2022/07/18 08:50:01;;;;;;;1999.90;999.90;;;30.60;1.00;;;;;;5073670;28;20221;-63
2022/07/18 08:52:30;;;;;;;1999.90;999.90;;;30.30;1.00;;;;;;5073379;28;20198;-63
2022/07/18 08:54:57;;;;;;;1999.90;999.90;;;30.50;1.00;;;;;;5073602;28;20203;-64
2022/07/18 08:57:24;;;;;;;1999.90;999.90;;;30.50;1.00;;;;;;5073462;28;20199;-63
2022/07/18 08:59:51;;;;;;;1999.90;999.90;;;30.40;1.00;;;;;;5073116;28;20714;-63
2022/07/18 09:02:18;;;;;;;1999.90;999.90;;;30.90;1.00;;;;;;5073078;28;20199;-63
2022/07/18 09:04:47;;;;;;;1999.90;999.90;;;31.50;1.00;;;;;;5073415;28;20559;-63
2022/07/18 09:07:25;;;;;;;1999.90;999.90;;;31.50;1.00;;;;;;5072951;28;20797;-64
2022/07/18 09:09:54;;;;;;;1999.90;999.90;;;31.30;1.00;;;;;;5072989;28;20248;-64
2022/07/18 09:12:22;;;;;;;1999.90;999.90;;;31.50;1.00;;;;;;5072919;28;20203;-64
2022/07/18 09:14:49;;;;;;;1999.90;999.90;;;31.40;1.00;;;;;;5072948;28;20264;-64
2022/07/18 09:17:18;;;;;;;1999.90;999.90;;;31.10;1.00;;;;;;5072925;28;20224;-64
2022/07/18 09:20:00;;;;;;;1999.90;999.90;;;31.50;1.00;;;;;;5072805;28;20203;-61
2022/07/18 09:22:29;;;;;;;1999.90;999.90;;;31.20;1.00;;;;;;5072548;28;20183;-62
2022/07/18 09:25:00;;;;;;;1999.90;999.90;;;31.30;1.00;;;;;;5072953;28;20199;-62
2022/07/18 09:27:30;;;;;;;1999.90;999.90;;;31.90;1.00;;;;;;5072914;28;20217;-61
2022/07/18 09:30:21;;;;;;;1999.90;999.90;;;32.00;1.00;;;;;;5072550;28;20207;-61
2022/07/18 09:32:51;;;;;;;1999.90;999.90;;;31.30;1.00;;;;;;5072685;28;20667;-61
2022/07/18 09:35:22;;;;;;;1999.90;999.90;;;31.90;1.00;;;;;;5072708;28;20235;-61
2022/07/18 09:37:59;;;;;;;1999.90;999.90;;;32.00;1.00;;;;;;5072826;28;20179;-62
2022/07/18 09:40:30;;;;;;;1999.90;999.90;;;31.90;1.00;;;;;;5072805;28;20183;-62
2022/07/18 09:42:59;;;;;;;1999.90;999.90;;;31.70;1.00;;;;;;5072456;28;20198;-61
2022/07/18 09:45:29;;;;;;;1999.90;999.90;;;32.70;1.00;;;;;;5072747;28;20191;-61
2022/07/18 09:47:59;;;;;;;1999.90;999.90;;;32.80;1.00;;;;;;5072651;28;20206;-61
2022/07/18 09:50:31;;;;;;;1999.90;999.90;;;33.00;1.00;;;;;;5072665;28;20232;-61
2022/07/18 09:53:15;;;;;;;1999.90;999.90;;;32.60;1.00;;;;;;5072525;28;20179;-62
2022/07/18 09:55:44;;;;;;;1999.90;999.90;;;32.20;1.00;;;;;;5070417;28;20559;-62
2022/07/18 09:58:12;;;;;;;1999.90;999.90;;;32.10;1.00;;;;;;5072569;28;20197;-61
2022/07/18 10:00:40;;;;;;;1999.90;999.90;;;32.50;1.00;;;;;;5072488;28;20199;-61
2022/07/18 10:03:09;;;;;;;1999.90;999.90;;;32.80;1.00;;;;;;5072442;28;20209;-61
2022/07/18 10:05:38;;;;;;;1999.90;999.90;;;32.80;1.00;;;;;;5072159;28;20199;-61
2022/07/18 10:08:08;;;;;;;1999.90;999.90;;;32.80;1.00;;;;;;5072085;28;20684;-61
2022/07/18 10:10:37;;;;;;;1999.90;999.90;;;32.60;1.00;;;;;;5072265;28;20686;-61
2022/07/18 10:13:06;;;;;;;1999.90;999.90;;;32.50;1.00;;;;;;5071354;28;20198;-62
2022/07/18 10:15:35;;;;;;;1999.90;999.90;;;32.90;1.00;;;;;;5072143;28;20691;-61
2022/07/18 10:18:03;;;;;;;1999.90;999.90;;;33.10;1.00;;;;;;5072080;28;20690;-61
2022/07/18 10:20:34;;;;;;;1999.90;999.90;;;32.80;1.00;;;;;;5072079;28;20205;-61
2022/07/18 10:23:12;;;;;;;1999.90;999.90;;;33.00;1.00;;;;;;5072180;28;20179;-62
2022/07/18 10:25:39;;;;;;;1999.90;999.90;;;32.90;1.00;;;;;;5071911;28;20187;-62
2022/07/18 10:28:10;;;;;;;1999.90;999.90;;;32.90;1.00;;;;;;5071950;28;20210;-62
2022/07/18 10:30:46;;;;;;;1999.90;999.90;;;33.10;1.00;;;;;;5072008;28;20205;-62
2022/07/18 10:33:43;;;;;;;1999.90;999.90;;;33.40;1.00;;;;;;5071953;28;20193;-61
2022/07/18 10:36:15;;;;;;;1999.90;999.90;;;33.80;1.00;;;;;;5072092;28;20248;-62
2022/07/18 10:39:07;;;;;;;1999.90;999.90;;;34.20;1.00;;;;;;5071954;28;20543;-62
2022/07/18 10:41:52;;;;;;;1999.90;999.90;;;34.40;1.00;;;;;;5072320;28;20193;-62
2022/07/18 10:44:34;;;;;;;1999.90;999.90;;;34.20;1.00;;;;;;5072057;28;20183;-62
2022/07/18 10:47:09;;;;;;;1999.90;999.90;;;33.70;1.00;;;;;;5071938;28;20198;-62
2022/07/18 10:50:16;;;;;;;1999.90;999.90;;;34.10;1.00;;;;;;5071685;28;20662;-62
2022/07/18 10:53:01;;;;;;;1999.90;999.90;;;33.70;1.00;;;;;;5065154;28;20213;-61
2022/07/18 10:55:35;;;;;;;1999.90;999.90;;;33.60;1.00;;;;;;5072097;28;20183;-61
2022/07/18 10:58:22;;;;;;;1999.90;999.90;;;33.70;1.00;;;;;;5071777;28;20187;-61
2022/07/18 11:01:00;;;;;;;1999.90;999.90;;;33.90;1.00;;;;;;5072053;28;20207;-61
2022/07/18 11:03:28;;;;;;;1999.90;999.90;;;34.10;1.00;;;;;;5072258;28;20179;-60
2022/07/18 11:05:57;;;;;;;1999.90;999.90;;;34.20;1.00;;;;;;5071650;28;20203;-61
2022/07/18 11:08:25;;;;;;;1999.90;999.90;;;34.20;1.00;;;;;;5071836;28;20215;-60
2022/07/18 11:11:14;;;;;;;1999.90;999.90;;;33.70;1.00;;;;;;5071945;28;20191;-61
2022/07/18 11:13:49;;;;;;;1999.90;999.90;;;34.00;1.00;;;;;;5071634;28;20183;-62
2022/07/18 11:16:19;;;;;;;1999.90;999.90;;;34.40;1.00;;;;;;5071634;28;20186;-61
2022/07/18 11:19:20;;;;;;;1999.90;999.90;;;34.40;1.00;;;;;;5071514;28;20195;-61
2022/07/18 11:21:56;;;;;;;1999.90;999.90;;;34.30;1.00;;;;;;5071591;28;20195;-61
2022/07/18 11:24:24;;;;;;;1999.90;999.90;;;34.10;1.00;;;;;;5073792;28;20216;-61
2022/07/18 11:26:52;;;;;;;1999.90;999.90;;;34.30;1.00;;;;;;5075308;28;20201;-61
2022/07/18 11:29:21;;;;;;;1999.90;999.90;;;34.60;1.00;;;;;;5074890;28;20225;-61
2022/07/18 11:31:50;;;;;;;1999.90;999.90;;;34.50;1.00;;;;;;5074811;28;20213;-61
2022/07/18 11:34:18;;;;;;;1999.90;999.90;;;34.10;1.00;;;;;;5075066;28;20744;-63
2022/07/18 11:36:47;;;;;;;1999.90;999.90;;;34.60;1.00;;;;;;5074755;28;20212;-63
2022/07/18 11:39:15;;;;;;;1999.90;999.90;;;34.20;1.00;;;;;;5075115;28;20232;-63
2022/07/18 11:41:43;;;;;;;1999.90;999.90;;;34.50;1.00;;;;;;5075038;28;20194;-63
2022/07/18 11:44:21;;;;;;;1999.90;999.90;;;34.40;1.00;;;;;;5074905;28;20199;-63
2022/07/18 11:46:49;;;;;;;1999.90;999.90;;;34.30;1.00;;;;;;5074844;28;20244;-63
2022/07/18 11:49:16;;;;;;;1999.90;999.90;;;34.50;1.00;;;;;;5074527;28;20205;-64
2022/07/18 11:51:45;;;;;;;1999.90;999.90;;;34.70;1.00;;;;;;5074397;28;20664;-63
2022/07/18 11:54:22;;;;;;;1999.90;999.90;;;34.50;1.00;;;;;;5074751;28;20206;-63
2022/07/18 11:56:52;;;;;;;1999.90;999.90;;;34.70;1.00;;;;;;5074758;28;20548;-63
2022/07/18 11:59:21;;;;;;;1999.90;999.90;;;34.20;1.00;;;;;;5074485;28;20692;-63
2022/07/18 12:01:52;;;;;;;1999.90;999.90;;;34.00;1.00;;;;;;5074778;28;20205;-62
2022/07/18 12:04:21;;;;;;;1999.90;999.90;;;34.50;1.00;;;;;;5074383;28;20732;-63
2022/07/18 12:07:13;;;;;;;1999.90;999.90;;;34.80;1.00;;;;;;5074274;28;20673;-62
2022/07/18 12:09:41;;;;;;;1999.90;999.90;;;35.10;1.00;;;;;;5074491;28;20539;-63
2022/07/18 12:12:09;;;;;;;1999.90;999.90;;;34.80;1.00;;;;;;5074150;28;20199;-63